Terminal Aerodrome Forecast
Issued by NWS Billings, MT

Home | Current Version | Previous Version | Text Only | Print | Product List | Glossary Off
Versions: 1 2 3 4 5 6 7 8 9 10 11 12 13 14

000
FTUS45 KBYZ 271737
TAFMLS
TAF
KMLS 271737Z 2718/2818 18010KT P6SM VCSH BKN100
     FM271900 16011KT P6SM FEW100 SCT150
     FM272300 12014KT P6SM VCTS SCT090CB BKN120
     FM280600 VRB06KT P6SM SCT120
     FM281200 29010KT P6SM FEW100=

USA.gov is the U.S. government's official web portal to all federal, state and local government web resources and services.